createdAt,value
2022-12-19T00:01:33.873Z,96175.47
2022-12-19T00:04:08.372Z,96172.31
2022-12-19T00:06:37.045Z,96176.88
2022-12-19T00:09:04.080Z,96195.44
2022-12-19T00:11:31.510Z,96190.44
2022-12-19T00:13:59.057Z,96194.06
2022-12-19T00:16:28.127Z,96187.66
2022-12-19T00:18:56.881Z,96179.38
2022-12-19T00:21:26.028Z,96179.13
2022-12-19T00:23:53.107Z,96170.84
2022-12-19T00:26:25.528Z,96154.72
2022-12-19T00:28:54.699Z,96153.06
2022-12-19T00:31:24.349Z,96169.56
2022-12-19T00:33:51.208Z,96169.56
2022-12-19T00:36:23.789Z,96168.72
2022-12-19T00:38:52.408Z,96174.56
2022-12-19T00:41:22.168Z,96164.66
2022-12-19T00:44:00.294Z,96168.00
2022-12-19T00:46:27.906Z,96166.75
2022-12-19T00:48:55.401Z,96168.63
2022-12-19T00:51:24.608Z,96156.81
2022-12-19T00:53:53.292Z,96150.94
2022-12-19T00:56:29.882Z,96155.50
2022-12-19T00:58:57.309Z,96152.34
2022-12-19T01:01:27.970Z,96166.81
2022-12-19T01:06:42.376Z,96161.56
2022-12-19T01:09:11.152Z,96173.72
2022-12-19T01:11:56.260Z,96173.13
2022-12-19T01:14:23.666Z,96166.25
2022-12-19T01:16:51.373Z,96177.00
2022-12-19T01:19:18.128Z,96168.47
2022-12-19T01:21:45.089Z,96167.19
2022-12-19T01:24:12.404Z,96171.06
2022-12-19T01:26:40.491Z,96168.97
2022-12-19T01:29:07.214Z,96173.66
2022-12-19T01:31:34.161Z,96170.25
2022-12-19T01:34:01.495Z,96167.91
2022-12-19T01:36:28.496Z,96171.19
2022-12-19T01:38:57.800Z,96178.19
2022-12-19T01:41:24.627Z,96171.78
2022-12-19T01:44:00.916Z,96166.97
2022-12-19T01:46:34.014Z,96162.41
2022-12-19T01:49:02.626Z,96161.59
2022-12-19T01:51:37.396Z,96166.50
2022-12-19T01:54:07.796Z,96161.59
2022-12-19T01:56:42.583Z,96150.03
2022-12-19T01:59:16.737Z,96144.88
2022-12-19T02:01:51.766Z,96142.78
2022-12-19T02:04:20.343Z,96135.31
2022-12-19T02:06:48.410Z,96131.09
2022-12-19T02:09:15.982Z,96140.66
2022-12-19T02:11:42.568Z,96134.09
2022-12-19T02:14:09.369Z,96132.91
2022-12-19T02:16:57.363Z,96132.09
2022-12-19T02:19:48.442Z,96136.28
2022-12-19T02:22:40.977Z,96133.13
2022-12-19T02:25:19.418Z,96138.63
2022-12-19T02:28:06.722Z,96136.75
2022-12-19T02:31:13.801Z,96154.38
2022-12-19T02:34:05.919Z,96147.47
2022-12-19T02:36:43.423Z,96149.44
2022-12-19T02:39:18.599Z,96151.53
2022-12-19T02:41:52.833Z,96143.53
2022-12-19T02:44:26.117Z,96140.94
2022-12-19T02:46:53.447Z,96141.75
2022-12-19T02:49:24.908Z,96131.22
2022-12-19T02:51:57.515Z,96128.53
2022-12-19T02:54:24.827Z,96129.34
2022-12-19T02:57:05.181Z,96118.34
2022-12-19T03:00:03.541Z,96109.78
2022-12-19T03:02:53.846Z,96101.78
2022-12-19T03:05:31.595Z,96099.53
2022-12-19T03:07:58.139Z,96095.28
2022-12-19T03:10:36.777Z,96104.75
2022-12-19T03:13:12.119Z,96093.50
2022-12-19T03:15:41.638Z,96100.66
2022-12-19T03:18:08.580Z,96100.09
2022-12-19T03:20:44.868Z,96103.03
2022-12-19T03:23:12.941Z,96094.97
2022-12-19T03:25:42.868Z,96103.03
2022-12-19T03:28:14.120Z,96106.06
2022-12-19T03:30:44.508Z,96104.75
2022-12-19T03:33:13.729Z,96103.78
2022-12-19T03:35:41.568Z,96104.38
2022-12-19T03:38:12.244Z,96099.09
2022-12-19T03:40:40.978Z,96102.59
2022-12-19T03:43:10.758Z,96094.50
2022-12-19T03:45:44.048Z,96093.38
2022-12-19T03:48:17.637Z,96090.19
2022-12-19T03:50:48.543Z,96113.13
2022-12-19T03:53:35.405Z,96119.66
2022-12-19T03:56:23.284Z,96132.50
2022-12-19T03:58:59.196Z,96137.72
2022-12-19T04:01:27.970Z,96126.53
2022-12-19T04:03:58.166Z,96116.47
2022-12-19T04:06:28.394Z,96110.75
2022-12-19T04:08:57.055Z,96106.88
2022-12-19T04:11:30.588Z,96103.63
2022-12-19T04:14:08.505Z,96092.97
2022-12-19T04:16:45.933Z,96074.69
2022-12-19T04:19:20.895Z,96073.13
2022-12-19T04:21:56.493Z,96073.94
2022-12-19T04:24:29.101Z,96086.31
2022-12-19T04:26:57.512Z,96084.38
2022-12-19T04:29:26.800Z,96085.94
2022-12-19T04:31:53.763Z,96086.44
2022-12-19T04:34:21.279Z,96086.75
2022-12-19T04:36:50.376Z,96084.63
2022-12-19T04:39:17.085Z,96078.09
2022-12-19T04:41:43.666Z,96079.41
2022-12-19T04:44:10.269Z,96062.41
2022-12-19T04:46:36.805Z,96071.88
2022-12-19T04:49:03.528Z,96076.78
2022-12-19T04:51:30.527Z,96086.00
2022-12-19T04:53:57.501Z,96102.75
2022-12-19T04:56:24.348Z,96097.34
2022-12-19T04:58:56.606Z,96093.59
2022-12-19T05:01:23.213Z,96091.97
2022-12-19T05:03:54.315Z,96083.13
2022-12-19T05:06:22.901Z,96082.38
2022-12-19T05:08:49.437Z,96085.19
2022-12-19T05:11:19.750Z,96083.38
2022-12-19T05:13:47.294Z,96079.28
2022-12-19T05:16:15.861Z,96078.78
2022-12-19T05:18:42.907Z,96085.06
2022-12-19T05:21:09.802Z,96090.25
2022-12-19T05:23:36.661Z,96088.13
2022-12-19T05:26:04.852Z,96086.75
2022-12-19T05:28:32.858Z,96094.53
2022-12-19T05:31:04.506Z,96098.56
2022-12-19T05:33:31.215Z,96103.44
2022-12-19T05:35:57.918Z,96105.63
2022-12-19T05:38:25.484Z,96103.25
2022-12-19T05:40:52.148Z,96101.47
2022-12-19T05:43:18.713Z,96104.22
2022-12-19T05:45:45.287Z,96100.19
2022-12-19T05:48:11.946Z,96090.25
2022-12-19T05:50:38.553Z,96093.31
2022-12-19T05:53:05.412Z,96089.34
2022-12-19T05:55:32.192Z,96098.06
2022-12-19T05:57:58.825Z,96105.16
2022-12-19T06:00:25.897Z,96093.63
2022-12-19T06:02:52.662Z,96089.06
2022-12-19T06:05:19.458Z,96108.28
2022-12-19T06:07:46.599Z,96107.78
2022-12-19T06:10:13.222Z,96103.81
2022-12-19T06:12:40.033Z,96109.03
2022-12-19T06:15:07.212Z,96108.00
2022-12-19T06:17:34.454Z,96122.06
2022-12-19T06:20:01.027Z,96110.72
2022-12-19T06:22:27.708Z,96108.59
2022-12-19T06:24:54.225Z,96103.69
2022-12-19T06:27:20.771Z,96108.00
2022-12-19T06:29:47.368Z,96109.06
2022-12-19T06:32:13.884Z,96103.66
2022-12-19T06:35:03.370Z,96109.09
2022-12-19T06:37:27.135Z,96104.50
2022-12-19T06:39:53.662Z,96110.72
2022-12-19T06:42:22.938Z,96116.75
2022-12-19T06:44:54.378Z,96120.00
2022-12-19T06:47:23.635Z,96108.91
2022-12-19T06:49:50.327Z,96122.50
2022-12-19T06:52:17.534Z,96121.66
2022-12-19T06:54:44.100Z,96124.97
2022-12-19T06:57:10.755Z,96129.03
2022-12-19T06:59:37.335Z,96135.28
2022-12-19T07:02:21.755Z,96143.94
2022-12-19T07:04:52.608Z,96146.66
2022-12-19T07:07:19.566Z,96139.34
2022-12-19T07:09:46.188Z,96133.13
2022-12-19T07:12:12.808Z,96140.16
2022-12-19T07:14:39.328Z,96143.44
2022-12-19T07:17:06.606Z,96142.13
2022-12-19T07:19:34.529Z,96146.75
2022-12-19T07:22:03.804Z,96138.69
2022-12-19T07:24:30.937Z,96144.66
2022-12-19T07:26:58.179Z,96141.66
2022-12-19T07:29:25.534Z,96138.94
2022-12-19T07:31:52.493Z,96160.34
2022-12-19T07:34:19.179Z,96134.09
2022-12-19T07:36:45.815Z,96147.34
2022-12-19T07:39:12.529Z,96160.38
2022-12-19T07:41:40.096Z,96152.81
2022-12-19T07:44:07.263Z,96143.13
2022-12-19T07:46:33.812Z,96148.81
2022-12-19T07:49:01.084Z,96148.25
2022-12-19T07:51:28.468Z,96143.66
2022-12-19T07:53:55.018Z,96151.81
2022-12-19T07:56:21.938Z,96142.63
2022-12-19T07:58:48.494Z,96140.44
2022-12-19T08:01:15.188Z,96144.25
2022-12-19T08:03:41.811Z,96143.44
2022-12-19T08:06:08.725Z,96141.00
2022-12-19T08:08:37.634Z,96145.88
2022-12-19T08:11:13.354Z,96146.28
2022-12-19T08:13:46.434Z,96145.53
2022-12-19T08:16:13.790Z,96140.69
2022-12-19T08:18:40.625Z,96127.41
2022-12-19T08:21:09.023Z,96129.25
2022-12-19T08:23:35.572Z,96118.47
2022-12-19T08:26:05.132Z,96115.78
2022-12-19T08:28:33.539Z,96115.31
2022-12-19T08:31:09.366Z,96113.16
2022-12-19T08:33:36.872Z,96111.47
2022-12-19T08:36:08.162Z,96131.72
2022-12-19T08:38:35.788Z,96127.31
2022-12-19T08:41:02.963Z,96113.91
2022-12-19T08:43:30.622Z,96128.38
2022-12-19T08:45:57.900Z,96134.25
2022-12-19T08:48:24.957Z,96125.53
2022-12-19T08:50:59.777Z,96143.34
2022-12-19T08:53:28.871Z,96134.72
2022-12-19T08:55:56.913Z,96121.19
2022-12-19T08:58:24.548Z,96100.66
2022-12-19T09:00:57.672Z,96115.25
2022-12-19T09:03:29.686Z,96130.13
2022-12-19T09:06:18.696Z,96132.28
2022-12-19T09:08:46.006Z,96133.09
2022-12-19T09:11:17.734Z,96125.78
2022-12-19T09:13:45.056Z,96126.38
2022-12-19T09:16:13.301Z,96120.19
2022-12-19T09:18:46.602Z,96115.38
2022-12-19T09:21:15.459Z,96117.56
2022-12-19T09:23:42.770Z,96120.84
2022-12-19T09:26:12.828Z,96118.69
2022-12-19T09:28:41.469Z,96125.25
2022-12-19T09:31:12.406Z,96131.22
2022-12-19T09:33:43.424Z,96132.31
2022-12-19T09:36:23.241Z,96132.34
2022-12-19T09:38:50.970Z,96125.31
2022-12-19T09:41:46.183Z,96123.72
2022-12-19T09:44:45.971Z,96112.63
2022-12-19T09:47:17.904Z,96114.00
2022-12-19T09:49:47.479Z,96107.53
2022-12-19T09:52:19.203Z,96113.22
2022-12-19T09:55:03.811Z,96101.31
2022-12-19T09:57:47.203Z,96099.69
2022-12-19T10:00:22.501Z,96106.75
2022-12-19T10:03:05.549Z,96106.47
2022-12-19T10:07:07.916Z,96094.31
2022-12-19T10:10:00.972Z,96093.53
2022-12-19T10:12:42.399Z,96092.75
2022-12-19T10:15:20.221Z,96085.44
2022-12-19T10:18:24.589Z,96088.50
2022-12-19T10:21:08.997Z,96089.31
2022-12-19T10:24:24.052Z,96077.41
2022-12-19T10:26:53.707Z,96083.38
2022-12-19T10:29:38.987Z,96086.09
2022-12-19T10:32:25.329Z,96093.13
2022-12-19T10:34:53.775Z,96085.03
2022-12-19T10:37:47.351Z,96089.38
2022-12-19T10:40:27.943Z,96078.25
2022-12-19T10:43:25.878Z,96078.00
2022-12-19T10:46:02.728Z,96074.75
2022-12-19T10:48:31.425Z,96070.41
2022-12-19T10:50:58.549Z,96073.91
2022-12-19T10:53:32.256Z,96073.13
2022-12-19T10:56:12.522Z,96067.44
2022-12-19T10:58:44.283Z,96062.78
2022-12-19T11:01:16.914Z,96062.25
2022-12-19T11:03:48.094Z,96055.44
2022-12-19T11:06:48.161Z,96059.25
2022-12-19T11:09:25.564Z,96054.91
2022-12-19T11:14:23.872Z,96072.28
2022-12-19T11:20:18.990Z,96077.97
2022-12-19T11:29:17.027Z,96071.44
2022-12-19T11:29:27.193Z,96066.53
2022-12-19T11:30:43.089Z,96065.44
2022-12-19T11:30:47.825Z,96052.66
2022-12-19T11:32:45.099Z,96064.31
2022-12-19T11:35:36.820Z,96068.09
2022-12-19T11:38:06.158Z,96069.94
2022-12-19T11:40:53.296Z,96062.88
2022-12-19T11:43:45.751Z,96072.63
2022-12-19T11:46:40.641Z,96062.00
2022-12-19T11:49:19.060Z,96068.25
2022-12-19T11:52:03.176Z,96073.69
2022-12-19T11:54:56.268Z,96073.38
2022-12-19T11:57:23.864Z,96074.47
2022-12-19T11:59:54.002Z,96070.94
2022-12-19T12:02:36.008Z,96057.38
2022-12-19T12:05:08.195Z,96048.69
2022-12-19T12:08:32.132Z,96038.63
2022-12-19T12:13:48.589Z,96046.50
2022-12-19T12:23:19.134Z,96047.06
2022-12-19T12:31:00.356Z,96058.25
2022-12-19T12:31:11.703Z,96060.16
2022-12-19T12:31:18.626Z,96050.41
2022-12-19T12:31:57.585Z,96061.53
2022-12-19T12:32:05.261Z,96060.19
2022-12-19T12:35:51.346Z,96042.59
2022-12-19T12:40:50.820Z,96040.97
2022-12-19T12:43:39.050Z,96040.97
2022-12-19T12:46:17.677Z,96042.84
2022-12-19T12:48:55.532Z,96039.03
2022-12-19T12:51:24.935Z,96030.59
2022-12-19T12:54:03.270Z,96045.28
2022-12-19T12:56:30.381Z,96034.94
2022-12-19T12:58:56.849Z,96032.22
2022-12-19T13:01:29.705Z,96034.38
2022-12-19T13:04:02.705Z,96024.88
2022-12-19T13:06:36.427Z,96026.50
2022-12-19T13:09:08.952Z,96025.69
2022-12-19T13:11:57.202Z,96022.41
2022-12-19T13:14:35.926Z,96026.47
2022-12-19T13:17:10.944Z,96017.47
2022-12-19T13:19:51.874Z,96013.63
2022-12-19T13:22:37.733Z,96010.88
2022-12-19T13:25:27.221Z,96008.41
2022-12-19T13:28:04.170Z,96014.09
2022-12-19T13:30:46.242Z,96003.19
2022-12-19T13:33:21.002Z,96008.88
2022-12-19T13:39:44.906Z,96003.69
2022-12-19T13:40:00.504Z,96003.13
2022-12-19T13:42:00.893Z,95997.72
2022-12-19T13:44:28.276Z,95986.56
2022-12-19T13:46:56.004Z,95976.50
2022-12-19T13:49:35.644Z,95969.44
2022-12-19T13:52:03.926Z,95973.25
2022-12-19T13:54:34.862Z,95969.19
2022-12-19T13:57:06.345Z,95967.28
2022-12-19T13:59:39.921Z,95967.81
2022-12-19T14:02:16.016Z,95950.13
2022-12-19T14:04:44.764Z,95959.91
2022-12-19T14:07:42.179Z,95966.13
2022-12-19T14:11:44.278Z,95959.03
2022-12-19T14:13:49.045Z,95952.75
2022-12-19T14:16:44.079Z,95958.72
2022-12-19T14:19:28.981Z,95944.56
2022-12-19T14:22:15.910Z,95950.19
2022-12-19T14:28:14.431Z,95955.31
2022-12-19T14:28:17.073Z,95954.44
2022-12-19T14:30:57.787Z,95941.38
2022-12-19T14:33:45.774Z,95943.22
2022-12-19T14:36:25.712Z,95952.16
2022-12-19T14:39:22.830Z,95949.38
2022-12-19T14:42:04.644Z,95948.53
2022-12-19T14:52:51.730Z,95956.13
2022-12-19T14:53:52.336Z,95961.22
2022-12-19T15:02:10.511Z,95964.19
2022-12-19T15:04:50.919Z,95967.47
2022-12-19T15:07:27.330Z,95958.72
2022-12-19T15:11:06.813Z,95955.72
2022-12-19T15:14:49.362Z,95969.16
2022-12-19T15:16:07.419Z,95968.13
2022-12-19T15:18:34.339Z,95967.31
2022-12-19T15:21:08.047Z,95958.34
2022-12-19T15:23:34.739Z,95960.25
2022-12-19T15:26:06.483Z,95964.59
2022-12-19T15:28:51.897Z,95960.19
2022-12-19T15:31:29.946Z,95948.25
2022-12-19T15:36:43.629Z,95954.78
2022-12-19T15:39:10.178Z,95958.34
2022-12-19T15:41:36.920Z,95957.00
2022-12-19T15:44:16.077Z,95952.44
2022-12-19T15:46:48.413Z,95939.41
2022-12-19T15:49:20.788Z,95935.63
2022-12-19T15:51:48.264Z,95938.41
2022-12-19T15:54:47.083Z,95951.50
2022-12-19T15:57:01.687Z,95945.81
2022-12-19T15:59:37.553Z,95951.59
2022-12-19T16:02:15.880Z,95946.25
2022-12-19T16:04:42.946Z,95952.59
2022-12-19T16:07:25.725Z,95946.94
2022-12-19T16:09:52.513Z,95960.59
2022-12-19T16:12:23.889Z,95950.84
2022-12-19T16:14:58.051Z,95951.38
2022-12-19T16:17:27.131Z,95946.75
2022-12-19T16:19:53.950Z,95953.56
2022-12-19T16:22:23.585Z,95962.00
2022-12-19T16:24:52.070Z,95963.09
2022-12-19T16:27:28.519Z,95968.25
2022-12-19T16:29:56.655Z,95977.47
2022-12-19T16:32:26.508Z,95985.66
2022-12-19T16:34:53.529Z,95975.56
2022-12-19T16:37:20.454Z,95965.50
2022-12-19T16:39:47.129Z,95950.81
2022-12-19T16:42:15.959Z,95935.28
2022-12-19T16:44:45.435Z,95941.25
2022-12-19T16:47:17.790Z,95949.16
2022-12-19T16:49:45.228Z,95967.09
2022-12-19T16:52:12.048Z,95981.81
2022-12-19T16:54:38.946Z,95982.97
2022-12-19T16:57:14.064Z,95998.72
2022-12-19T16:59:40.745Z,95994.38
2022-12-19T17:02:39.895Z,96003.22
2022-12-19T17:05:08.319Z,96002.63
2022-12-19T17:07:35.201Z,95991.31
2022-12-19T17:10:01.799Z,95975.94
2022-12-19T17:12:28.815Z,95976.66
2022-12-19T17:14:55.399Z,95988.00
2022-12-19T17:17:22.000Z,95980.81
2022-12-19T17:19:48.601Z,95972.25
2022-12-19T17:22:17.217Z,95968.94
2022-12-19T17:24:46.621Z,95963.34
2022-12-19T17:27:13.367Z,95962.72
2022-12-19T17:29:40.185Z,95952.50
2022-12-19T17:32:09.081Z,95961.94
2022-12-19T17:34:36.152Z,95953.16
2022-12-19T17:37:05.153Z,95958.00
2022-12-19T17:39:34.449Z,95960.28
2022-12-19T17:42:11.321Z,95968.41
2022-12-19T17:44:38.140Z,95958.22
2022-12-19T17:47:04.709Z,95950.56
2022-12-19T17:49:32.866Z,95950.03
2022-12-19T17:51:59.991Z,95945.31
2022-12-19T17:54:27.269Z,95933.59
2022-12-19T17:56:54.425Z,95943.19
2022-12-19T17:59:21.125Z,95941.78
2022-12-19T18:01:47.850Z,95942.97
2022-12-19T18:04:18.427Z,95952.25
2022-12-19T18:06:45.790Z,95959.91
2022-12-19T18:09:23.424Z,95957.50
2022-12-19T18:11:52.560Z,95953.94
2022-12-19T18:14:19.433Z,95961.63
2022-12-19T18:16:49.582Z,95946.94
2022-12-19T18:19:19.747Z,95960.66
2022-12-19T18:21:46.440Z,95963.38
2022-12-19T18:24:16.370Z,95953.56
2022-12-19T18:26:44.404Z,95953.28
2022-12-19T18:29:11.433Z,95963.09
2022-12-19T18:31:40.614Z,95961.69
2022-12-19T18:34:19.527Z,95959.03
2022-12-19T18:36:46.316Z,95956.88
2022-12-19T18:39:28.086Z,95958.81
2022-12-19T18:41:55.116Z,95958.28
2022-12-19T18:44:24.636Z,95962.88
2022-12-19T18:46:52.024Z,95971.63
2022-12-19T18:49:19.144Z,95966.41
2022-12-19T18:51:45.779Z,95974.59
2022-12-19T18:54:17.541Z,95972.59
2022-12-19T18:56:44.673Z,95977.97
2022-12-19T18:59:11.227Z,95978.50
2022-12-19T19:01:46.716Z,95968.47
2022-12-19T19:04:17.775Z,95978.94
2022-12-19T19:06:50.823Z,95972.78
2022-12-19T19:09:20.326Z,95984.50
2022-12-19T19:11:47.067Z,95989.91
2022-12-19T19:14:13.805Z,95981.06
2022-12-19T19:16:40.590Z,95989.47
2022-12-19T19:19:10.792Z,95988.88
2022-12-19T19:21:38.702Z,95994.34
2022-12-19T19:24:15.167Z,95986.03
2022-12-19T19:26:42.030Z,95984.31
2022-12-19T19:29:10.010Z,95979.59
2022-12-19T19:31:40.872Z,95992.94
2022-12-19T19:34:16.878Z,95982.56
2022-12-19T19:36:47.376Z,95991.25
2022-12-19T19:39:14.079Z,95986.84
2022-12-19T19:41:40.752Z,95992.72
2022-12-19T19:44:07.501Z,95987.19
2022-12-19T19:46:34.266Z,95996.91
2022-12-19T19:49:00.835Z,96000.16
2022-12-19T19:51:29.058Z,96008.34
2022-12-19T19:53:55.926Z,96008.34
2022-12-19T19:56:22.624Z,96009.13
2022-12-19T19:58:49.195Z,96005.56
2022-12-19T20:01:15.883Z,96009.38
2022-12-19T20:03:44.627Z,96009.94
2022-12-19T20:06:12.104Z,96009.38
2022-12-19T20:08:39.966Z,96026.31
2022-12-19T20:11:08.976Z,96019.75
2022-12-19T20:13:35.886Z,96009.13
2022-12-19T20:16:11.198Z,96015.97
2022-12-19T20:18:40.556Z,96014.88
2022-12-19T20:21:12.744Z,96021.44
2022-12-19T20:23:40.550Z,96018.13
2022-12-19T20:26:07.498Z,96012.94
2022-12-19T20:28:34.881Z,96016.78
2022-12-19T20:31:01.765Z,96023.63
2022-12-19T20:33:28.371Z,96023.09
2022-12-19T20:36:12.336Z,96012.06
2022-12-19T20:38:38.972Z,96010.22
2022-12-19T20:41:05.641Z,96020.09
2022-12-19T20:43:32.653Z,96024.50
2022-12-19T20:46:05.363Z,96026.22
2022-12-19T20:48:32.537Z,96023.56
2022-12-19T20:51:00.230Z,96022.50
2022-12-19T20:53:27.414Z,96020.38
2022-12-19T20:55:58.181Z,96023.69
2022-12-19T20:58:26.667Z,96015.28
2022-12-19T21:01:17.723Z,96012.47
2022-12-19T21:03:45.303Z,96013.81
2022-12-19T21:06:15.653Z,96024.44
2022-12-19T21:08:42.597Z,96019.50
2022-12-19T21:11:09.830Z,96015.66
2022-12-19T21:13:38.055Z,96025.25
2022-12-19T21:16:09.913Z,96020.81
2022-12-19T21:18:39.060Z,96007.91
2022-12-19T21:21:07.243Z,96008.38
2022-12-19T21:23:34.072Z,96011.81
2022-12-19T21:26:02.968Z,96010.66
2022-12-19T21:28:29.749Z,95996.91
2022-12-19T21:30:58.982Z,95997.72
2022-12-19T21:33:26.561Z,96003.19
2022-12-19T21:35:53.311Z,96009.97
2022-12-19T21:38:19.969Z,96021.44
2022-12-19T21:40:46.603Z,96003.44
2022-12-19T21:43:13.248Z,96014.91
2022-12-19T21:45:40.408Z,96017.94
2022-12-19T21:48:07.078Z,95997.81
2022-12-19T21:50:34.023Z,96002.53
2022-12-19T21:53:01.121Z,95991.91
2022-12-19T21:55:27.720Z,95993.25
2022-12-19T21:57:54.300Z,95989.41
2022-12-19T22:00:21.023Z,95987.72
2022-12-19T22:03:12.217Z,95988.00
2022-12-19T22:05:35.149Z,95987.25
2022-12-19T22:08:01.736Z,95988.88
2022-12-19T22:10:28.282Z,95989.19
2022-12-19T22:12:54.808Z,95989.47
2022-12-19T22:15:21.365Z,95990.59
2022-12-19T22:17:47.958Z,95989.56
2022-12-19T22:20:14.704Z,95987.41
2022-12-19T22:22:41.345Z,95985.81
2022-12-19T22:25:08.238Z,95977.63
2022-12-19T22:27:34.989Z,95979.22
2022-12-19T22:30:08.508Z,95975.19
2022-12-19T22:32:37.022Z,95957.69
2022-12-19T22:35:04.289Z,95963.75
2022-12-19T22:37:30.869Z,95953.72
2022-12-19T22:40:00.185Z,95960.59
2022-12-19T22:42:27.938Z,95965.22
2022-12-19T22:44:54.474Z,95954.63
2022-12-19T22:47:21.052Z,95955.44
2022-12-19T22:49:52.099Z,95959.69
2022-12-19T22:52:18.868Z,95958.59
2022-12-19T22:54:45.428Z,95956.38
2022-12-19T22:57:12.323Z,95946.28
2022-12-19T22:59:38.858Z,95946.56
2022-12-19T23:02:05.617Z,95949.00
2022-12-19T23:04:32.292Z,95953.06
2022-12-19T23:06:58.870Z,95942.75
2022-12-19T23:09:25.407Z,95935.38
2022-12-19T23:11:52.185Z,95935.38
2022-12-19T23:14:19.831Z,95927.47
2022-12-19T23:16:46.840Z,95931.31
2022-12-19T23:19:15.605Z,95924.22
2022-12-19T23:21:42.177Z,95918.03
2022-12-19T23:24:08.836Z,95924.38
2022-12-19T23:26:37.424Z,95928.81
2022-12-19T23:29:10.045Z,95931.41
2022-12-19T23:31:39.470Z,95934.19
2022-12-19T23:34:06.272Z,95919.81
2022-12-19T23:37:09.017Z,95917.72
2022-12-19T23:39:19.563Z,95908.06
2022-12-19T23:41:46.164Z,95914.09
2022-12-19T23:44:12.839Z,95909.31
2022-12-19T23:46:40.200Z,95898.78
2022-12-19T23:49:06.855Z,95899.66
2022-12-19T23:51:33.914Z,95899.19
2022-12-19T23:54:00.458Z,95901.91
2022-12-19T23:56:30.279Z,95892.13
2022-12-19T23:58:57.418Z,95896.75
